sensor_id;sensor_type;location;lat;lon;timestamp;pressure;altitude;pressure_sealevel;temperature;humidity
72226;BME280;60130;52.250;5.048;2023-07-20T00:00:05;1015.4;;;17.0;79.8
72226;BME280;60130;52.250;5.048;2023-07-20T00:05:03;1015.5;;;17.0;79.9
72226;BME280;60130;52.250;5.048;2023-07-20T00:10:04;1015.5;;;16.9;79.9
72226;BME280;60130;52.250;5.048;2023-07-20T00:15:05;1015.5;;;16.8;80.0
72226;BME280;60130;52.250;5.048;2023-07-20T00:20:01;1015.5;;;16.7;79.9
72226;BME280;60130;52.250;5.048;2023-07-20T00:25:03;1015.5;;;16.5;80.7
72226;BME280;60130;52.250;5.048;2023-07-20T00:30:01;1015.5;;;16.3;81.2
72226;BME280;60130;52.250;5.048;2023-07-20T00:35:01;1015.5;;;16.2;81.4
72226;BME280;60130;52.250;5.048;2023-07-20T00:40:01;1015.4;;;16.0;82.0
72226;BME280;60130;52.250;5.048;2023-07-20T00:45:02;1015.4;;;16.0;82.2
72226;BME280;60130;52.250;5.048;2023-07-20T00:50:11;1015.4;;;16.0;82.4
72226;BME280;60130;52.250;5.048;2023-07-20T00:55:07;1015.4;;;16.0;82.2
72226;BME280;60130;52.250;5.048;2023-07-20T01:00:11;1015.4;;;16.0;82.2
72226;BME280;60130;52.250;5.048;2023-07-20T01:05:03;1015.4;;;16.0;82.3
72226;BME280;60130;52.250;5.048;2023-07-20T01:10:10;1015.4;;;15.9;82.8
72226;BME280;60130;52.250;5.048;2023-07-20T01:20:19;1015.5;;;15.8;83.2
72226;BME280;60130;52.250;5.048;2023-07-20T01:25:11;1015.5;;;15.7;83.5
72226;BME280;60130;52.250;5.048;2023-07-20T01:30:13;1015.5;;;15.6;83.8
72226;BME280;60130;52.250;5.048;2023-07-20T01:35:15;1015.5;;;15.6;84.1
72226;BME280;60130;52.250;5.048;2023-07-20T01:40:05;1015.5;;;15.6;84.1
72226;BME280;60130;52.250;5.048;2023-07-20T01:45:06;1015.5;;;15.5;83.8
72226;BME280;60130;52.250;5.048;2023-07-20T01:50:05;1015.5;;;15.5;83.7
72226;BME280;60130;52.250;5.048;2023-07-20T01:55:10;1015.4;;;15.4;83.7
72226;BME280;60130;52.250;5.048;2023-07-20T02:00:07;1015.4;;;15.4;83.9
72226;BME280;60130;52.250;5.048;2023-07-20T02:05:21;1015.4;;;15.4;84.1
72226;BME280;60130;52.250;5.048;2023-07-20T02:10:05;1015.5;;;15.4;83.4
72226;BME280;60130;52.250;5.048;2023-07-20T02:15:29;1015.4;;;15.4;83.7
72226;BME280;60130;52.250;5.048;2023-07-20T02:20:03;1015.4;;;15.3;83.9
72226;BME280;60130;52.250;5.048;2023-07-20T02:25:10;1015.5;;;15.2;84.1
72226;BME280;60130;52.250;5.048;2023-07-20T02:30:26;1015.4;;;15.2;84.2
72226;BME280;60130;52.250;5.048;2023-07-20T02:35:05;1015.5;;;15.3;84.0
72226;BME280;60130;52.250;5.048;2023-07-20T02:40:03;1015.5;;;15.2;84.0
72226;BME280;60130;52.250;5.048;2023-07-20T02:45:29;1015.5;;;15.1;83.8
72226;BME280;60130;52.250;5.048;2023-07-20T02:50:05;1015.6;;;15.0;83.7
72226;BME280;60130;52.250;5.048;2023-07-20T02:55:30;1015.6;;;14.8;84.1
72226;BME280;60130;52.250;5.048;2023-07-20T03:00:04;1015.6;;;14.8;84.2
72226;BME280;60130;52.250;5.048;2023-07-20T03:05:05;1015.6;;;14.7;84.3
72226;BME280;60130;52.250;5.048;2023-07-20T03:10:03;1015.7;;;14.7;84.1
72226;BME280;60130;52.250;5.048;2023-07-20T03:15:03;1015.7;;;14.6;84.5
72226;BME280;60130;52.250;5.048;2023-07-20T03:20:03;1015.7;;;14.5;84.6
72226;BME280;60130;52.250;5.048;2023-07-20T03:25:05;1015.9;;;14.5;85.0
72226;BME280;60130;52.250;5.048;2023-07-20T03:30:14;1015.9;;;14.5;84.8
72226;BME280;60130;52.250;5.048;2023-07-20T03:35:15;1015.9;;;14.3;85.0
72226;BME280;60130;52.250;5.048;2023-07-20T03:40:04;1016.0;;;14.3;85.8
72226;BME280;60130;52.250;5.048;2023-07-20T03:45:04;1016.0;;;14.3;85.4
72226;BME280;60130;52.250;5.048;2023-07-20T03:50:04;1016.0;;;14.2;85.8
72226;BME280;60130;52.250;5.048;2023-07-20T03:55:04;1016.0;;;14.2;85.6
72226;BME280;60130;52.250;5.048;2023-07-20T04:00:05;1016.0;;;14.2;86.0
72226;BME280;60130;52.250;5.048;2023-07-20T04:05:12;1016.1;;;14.3;86.1
72226;BME280;60130;52.250;5.048;2023-07-20T04:10:08;1016.1;;;14.3;85.8
72226;BME280;60130;52.250;5.048;2023-07-20T04:15:22;1016.1;;;14.3;85.5
72226;BME280;60130;52.250;5.048;2023-07-20T04:20:10;1016.1;;;14.3;85.6
72226;BME280;60130;52.250;5.048;2023-07-20T04:25:29;1016.2;;;14.3;85.8
72226;BME280;60130;52.250;5.048;2023-07-20T04:30:06;1016.2;;;14.3;85.6
72226;BME280;60130;52.250;5.048;2023-07-20T04:40:11;1016.2;;;14.5;85.1
72226;BME280;60130;52.250;5.048;2023-07-20T04:45:30;1016.2;;;14.6;84.8
72226;BME280;60130;52.250;5.048;2023-07-20T04:50:13;1016.2;;;14.7;84.5
72226;BME280;60130;52.250;5.048;2023-07-20T04:55:37;1016.3;;;14.8;84.1
72226;BME280;60130;52.250;5.048;2023-07-20T05:00:19;1016.4;;;14.9;83.6
72226;BME280;60130;52.250;5.048;2023-07-20T05:05:40;1016.3;;;15.0;83.5
72226;BME280;60130;52.250;5.048;2023-07-20T05:10:03;1016.2;;;15.2;82.8
72226;BME280;60130;52.250;5.048;2023-07-20T05:15:09;1016.3;;;15.4;81.6
72226;BME280;60130;52.250;5.048;2023-07-20T05:20:08;1016.4;;;15.6;80.2
72226;BME280;60130;52.250;5.048;2023-07-20T05:25:29;1016.4;;;15.8;79.7
72226;BME280;60130;52.250;5.048;2023-07-20T05:30:06;1016.3;;;15.9;78.5
72226;BME280;60130;52.250;5.048;2023-07-20T05:35:15;1016.4;;;16.2;78.0
72226;BME280;60130;52.250;5.048;2023-07-20T05:40:14;1016.4;;;16.4;77.3
72226;BME280;60130;52.250;5.048;2023-07-20T05:45:29;1016.4;;;16.5;76.0
72226;BME280;60130;52.250;5.048;2023-07-20T05:50:06;1016.4;;;16.6;76.0
72226;BME280;60130;52.250;5.048;2023-07-20T05:55:08;1016.3;;;16.9;74.6
72226;BME280;60130;52.250;5.048;2023-07-20T06:00:05;1016.3;;;17.1;73.8
72226;BME280;60130;52.250;5.048;2023-07-20T06:05:30;1016.3;;;17.4;72.3
72226;BME280;60130;52.250;5.048;2023-07-20T06:10:06;1016.3;;;17.5;70.7
72226;BME280;60130;52.250;5.048;2023-07-20T06:15:32;1016.5;;;18.2;67.6
72226;BME280;60130;52.250;5.048;2023-07-20T06:20:06;1016.5;;;19.2;64.6
72226;BME280;60130;52.250;5.048;2023-07-20T06:25:21;1016.5;;;19.5;62.6
72226;BME280;60130;52.250;5.048;2023-07-20T06:30:05;1016.5;;;20.1;60.1
72226;BME280;60130;52.250;5.048;2023-07-20T06:35:10;1016.6;;;21.3;58.2
72226;BME280;60130;52.250;5.048;2023-07-20T06:40:11;1016.5;;;22.7;54.7
72226;BME280;60130;52.250;5.048;2023-07-20T06:45:15;1016.5;;;23.6;50.5
72226;BME280;60130;52.250;5.048;2023-07-20T06:50:09;1016.6;;;24.3;47.7
72226;BME280;60130;52.250;5.048;2023-07-20T06:55:04;1016.6;;;24.7;46.9
72226;BME280;60130;52.250;5.048;2023-07-20T07:00:08;1016.7;;;25.1;46.2
72226;BME280;60130;52.250;5.048;2023-07-20T07:05:40;1016.7;;;24.4;46.3
72226;BME280;60130;52.250;5.048;2023-07-20T07:10:06;1016.7;;;24.9;45.7
72226;BME280;60130;52.250;5.048;2023-07-20T07:15:28;1016.7;;;25.2;43.7
72226;BME280;60130;52.250;5.048;2023-07-20T07:20:10;1016.7;;;25.2;43.9
72226;BME280;60130;52.250;5.048;2023-07-20T07:25:09;1016.7;;;25.9;40.6
72226;BME280;60130;52.250;5.048;2023-07-20T07:30:03;1016.6;;;25.2;41.3
72226;BME280;60130;52.250;5.048;2023-07-20T07:35:09;1016.6;;;25.3;42.9
72226;BME280;60130;52.250;5.048;2023-07-20T07:40:29;1016.6;;;24.6;43.2
72226;BME280;60130;52.250;5.048;2023-07-20T07:45:10;1016.7;;;25.0;40.3
72226;BME280;60130;52.250;5.048;2023-07-20T07:50:06;1016.8;;;25.2;41.9
72226;BME280;60130;52.250;5.048;2023-07-20T07:55:09;1016.8;;;25.6;39.2
72226;BME280;60130;52.250;5.048;2023-07-20T08:00:07;1016.8;;;26.0;37.6
72226;BME280;60130;52.250;5.048;2023-07-20T08:05:03;1016.8;;;25.9;34.8
72226;BME280;60130;52.250;5.048;2023-07-20T08:10:12;1016.8;;;26.0;36.8
72226;BME280;60130;52.250;5.048;2023-07-20T08:15:13;1016.8;;;26.0;36.8
72226;BME280;60130;52.250;5.048;2023-07-20T08:20:04;1016.7;;;24.7;39.7
72226;BME280;60130;52.250;5.048;2023-07-20T08:25:42;1016.7;;;23.3;43.2
72226;BME280;60130;52.250;5.048;2023-07-20T08:30:26;1016.6;;;22.9;45.1
72226;BME280;60130;52.250;5.048;2023-07-20T08:35:07;1016.7;;;22.8;43.9
72226;BME280;60130;52.250;5.048;2023-07-20T08:40:25;1016.7;;;22.8;45.2
72226;BME280;60130;52.250;5.048;2023-07-20T08:45:08;1016.7;;;23.0;47.8
72226;BME280;60130;52.250;5.048;2023-07-20T08:55:05;1016.7;;;22.3;49.5
72226;BME280;60130;52.250;5.048;2023-07-20T09:00:13;1016.7;;;22.1;49.1
72226;BME280;60130;52.250;5.048;2023-07-20T09:05:05;1016.7;;;22.2;49.9
72226;BME280;60130;52.250;5.048;2023-07-20T09:10:10;1016.7;;;22.6;49.4
72226;BME280;60130;52.250;5.048;2023-07-20T09:15:10;1016.7;;;22.9;48.5
72226;BME280;60130;52.250;5.048;2023-07-20T09:20:08;1016.7;;;23.4;47.6
72226;BME280;60130;52.250;5.048;2023-07-20T09:25:25;1016.7;;;23.4;44.4
72226;BME280;60130;52.250;5.048;2023-07-20T09:30:08;1016.7;;;23.1;45.5
72226;BME280;60130;52.250;5.048;2023-07-20T09:35:25;1016.7;;;22.5;48.4
72226;BME280;60130;52.250;5.048;2023-07-20T09:40:11;1016.6;;;22.7;47.6
72226;BME280;60130;52.250;5.048;2023-07-20T09:45:16;1016.7;;;22.7;47.7
72226;BME280;60130;52.250;5.048;2023-07-20T09:50:31;1016.6;;;23.9;44.9
72226;BME280;60130;52.250;5.048;2023-07-20T09:55:12;1016.6;;;24.6;44.3
72226;BME280;60130;52.250;5.048;2023-07-20T10:00:05;1016.6;;;24.7;45.5
72226;BME280;60130;52.250;5.048;2023-07-20T10:10:03;1016.5;;;23.9;43.3
72226;BME280;60130;52.250;5.048;2023-07-20T10:15:13;1016.5;;;24.1;43.0
72226;BME280;60130;52.250;5.048;2023-07-20T10:25:01;1016.4;;;24.0;40.9
72226;BME280;60130;52.250;5.048;2023-07-20T10:30:00;1016.3;;;23.9;44.8
72226;BME280;60130;52.250;5.048;2023-07-20T10:35:00;1016.4;;;24.4;44.5
72226;BME280;60130;52.250;5.048;2023-07-20T10:45:01;1016.4;;;24.0;43.2
72226;BME280;60130;52.250;5.048;2023-07-20T10:50:01;1016.3;;;24.2;44.6
72226;BME280;60130;52.250;5.048;2023-07-20T10:55:10;1016.4;;;24.5;46.5
72226;BME280;60130;52.250;5.048;2023-07-20T11:00:08;1016.3;;;24.1;44.3
72226;BME280;60130;52.250;5.048;2023-07-20T11:05:03;1016.2;;;24.5;42.2
72226;BME280;60130;52.250;5.048;2023-07-20T11:10:13;1016.2;;;24.2;44.0
72226;BME280;60130;52.250;5.048;2023-07-20T11:15:00;1016.2;;;24.5;42.8
72226;BME280;60130;52.250;5.048;2023-07-20T11:20:01;1016.2;;;24.0;43.0
72226;BME280;60130;52.250;5.048;2023-07-20T11:25:00;1016.2;;;23.7;44.0
72226;BME280;60130;52.250;5.048;2023-07-20T11:30:00;1016.1;;;23.6;46.2
72226;BME280;60130;52.250;5.048;2023-07-20T11:35:00;1016.2;;;23.1;44.5
72226;BME280;60130;52.250;5.048;2023-07-20T11:40:00;1016.2;;;23.0;45.9
72226;BME280;60130;52.250;5.048;2023-07-20T11:45:02;1016.1;;;23.1;46.9
72226;BME280;60130;52.250;5.048;2023-07-20T11:50:03;1016.1;;;24.5;46.7
72226;BME280;60130;52.250;5.048;2023-07-20T11:55:00;1016.1;;;25.0;42.0
72226;BME280;60130;52.250;5.048;2023-07-20T12:00:02;1016.0;;;25.2;43.0
72226;BME280;60130;52.250;5.048;2023-07-20T12:05:02;1016.0;;;25.6;39.9
72226;BME280;60130;52.250;5.048;2023-07-20T12:10:03;1015.9;;;25.7;42.0
72226;BME280;60130;52.250;5.048;2023-07-20T12:15:14;1015.9;;;26.0;40.7
72226;BME280;60130;52.250;5.048;2023-07-20T12:20:00;1015.9;;;25.2;38.6
72226;BME280;60130;52.250;5.048;2023-07-20T12:25:00;1015.8;;;25.3;40.3
72226;BME280;60130;52.250;5.048;2023-07-20T12:30:00;1015.7;;;25.6;38.1
72226;BME280;60130;52.250;5.048;2023-07-20T12:35:00;1015.8;;;25.2;39.9
72226;BME280;60130;52.250;5.048;2023-07-20T12:40:00;1015.8;;;25.2;37.4
72226;BME280;60130;52.250;5.048;2023-07-20T12:45:00;1015.7;;;24.8;38.4
72226;BME280;60130;52.250;5.048;2023-07-20T12:50:00;1015.7;;;24.7;40.3
72226;BME280;60130;52.250;5.048;2023-07-20T12:55:00;1015.7;;;25.3;39.3
72226;BME280;60130;52.250;5.048;2023-07-20T13:00:00;1015.6;;;25.7;39.3
72226;BME280;60130;52.250;5.048;2023-07-20T13:05:00;1015.6;;;26.0;40.1
72226;BME280;60130;52.250;5.048;2023-07-20T13:10:01;1015.6;;;26.1;36.7
72226;BME280;60130;52.250;5.048;2023-07-20T13:15:01;1015.5;;;26.4;37.1
72226;BME280;60130;52.250;5.048;2023-07-20T13:20:00;1015.5;;;26.2;37.4
72226;BME280;60130;52.250;5.048;2023-07-20T13:25:00;1015.4;;;26.6;38.1
72226;BME280;60130;52.250;5.048;2023-07-20T13:30:00;1015.4;;;25.9;38.2
72226;BME280;60130;52.250;5.048;2023-07-20T13:35:00;1015.4;;;24.6;39.5
72226;BME280;60130;52.250;5.048;2023-07-20T13:40:00;1015.4;;;25.0;39.0
72226;BME280;60130;52.250;5.048;2023-07-20T13:45:00;1015.3;;;24.3;42.5
72226;BME280;60130;52.250;5.048;2023-07-20T13:50:00;1015.3;;;24.5;40.1
72226;BME280;60130;52.250;5.048;2023-07-20T13:55:00;1015.2;;;25.0;39.7
72226;BME280;60130;52.250;5.048;2023-07-20T14:00:00;1015.2;;;25.4;39.6
72226;BME280;60130;52.250;5.048;2023-07-20T14:05:00;1015.1;;;25.8;38.4
72226;BME280;60130;52.250;5.048;2023-07-20T14:10:00;1015.0;;;25.4;37.7
72226;BME280;60130;52.250;5.048;2023-07-20T14:15:00;1015.1;;;26.0;35.9
72226;BME280;60130;52.250;5.048;2023-07-20T14:20:00;1015.2;;;25.3;41.6
72226;BME280;60130;52.250;5.048;2023-07-20T14:25:00;1015.1;;;25.1;43.6
72226;BME280;60130;52.250;5.048;2023-07-20T14:30:00;1015.1;;;25.3;43.6
72226;BME280;60130;52.250;5.048;2023-07-20T14:35:00;1015.1;;;25.3;42.3
72226;BME280;60130;52.250;5.048;2023-07-20T14:40:00;1015.0;;;25.2;43.4
72226;BME280;60130;52.250;5.048;2023-07-20T14:45:00;1015.0;;;25.0;44.5
72226;BME280;60130;52.250;5.048;2023-07-20T14:50:00;1015.0;;;24.7;45.3
72226;BME280;60130;52.250;5.048;2023-07-20T14:55:00;1015.0;;;24.7;42.2
72226;BME280;60130;52.250;5.048;2023-07-20T15:00:00;1014.9;;;24.2;43.6
72226;BME280;60130;52.250;5.048;2023-07-20T15:05:00;1014.9;;;24.4;42.7
72226;BME280;60130;52.250;5.048;2023-07-20T15:10:00;1015.0;;;24.7;43.0
72226;BME280;60130;52.250;5.048;2023-07-20T15:15:03;1014.9;;;24.6;44.2
72226;BME280;60130;52.250;5.048;2023-07-20T15:20:01;1014.9;;;24.4;46.0
72226;BME280;60130;52.250;5.048;2023-07-20T15:25:00;1014.8;;;24.4;44.6
72226;BME280;60130;52.250;5.048;2023-07-20T15:30:00;1014.8;;;24.5;46.7
72226;BME280;60130;52.250;5.048;2023-07-20T15:35:00;1014.9;;;24.4;47.1
72226;BME280;60130;52.250;5.048;2023-07-20T15:40:00;1014.8;;;24.4;47.0
72226;BME280;60130;52.250;5.048;2023-07-20T15:45:00;1014.8;;;24.1;49.0
72226;BME280;60130;52.250;5.048;2023-07-20T15:50:00;1014.8;;;24.0;48.6
72226;BME280;60130;52.250;5.048;2023-07-20T15:55:00;1014.7;;;23.9;47.6
72226;BME280;60130;52.250;5.048;2023-07-20T16:00:00;1014.8;;;24.1;48.1
72226;BME280;60130;52.250;5.048;2023-07-20T16:05:00;1014.7;;;23.8;47.6
72226;BME280;60130;52.250;5.048;2023-07-20T16:10:00;1014.7;;;23.6;48.9
72226;BME280;60130;52.250;5.048;2023-07-20T16:15:00;1014.7;;;24.0;48.8
72226;BME280;60130;52.250;5.048;2023-07-20T16:20:00;1014.7;;;23.8;48.0
72226;BME280;60130;52.250;5.048;2023-07-20T16:25:00;1014.7;;;23.7;49.8
72226;BME280;60130;52.250;5.048;2023-07-20T16:30:00;1014.6;;;23.5;50.1
72226;BME280;60130;52.250;5.048;2023-07-20T16:35:00;1014.6;;;23.4;50.9
72226;BME280;60130;52.250;5.048;2023-07-20T16:40:00;1014.6;;;23.6;50.7
72226;BME280;60130;52.250;5.048;2023-07-20T16:45:00;1014.5;;;23.6;50.0
72226;BME280;60130;52.250;5.048;2023-07-20T16:50:00;1014.5;;;23.2;50.4
72226;BME280;60130;52.250;5.048;2023-07-20T16:55:00;1014.5;;;23.0;51.8
72226;BME280;60130;52.250;5.048;2023-07-20T17:00:00;1014.5;;;23.0;52.3
72226;BME280;60130;52.250;5.048;2023-07-20T17:05:00;1014.5;;;22.8;49.3
72226;BME280;60130;52.250;5.048;2023-07-20T17:10:00;1014.5;;;23.0;50.8
72226;BME280;60130;52.250;5.048;2023-07-20T17:15:00;1014.4;;;23.5;50.3
72226;BME280;60130;52.250;5.048;2023-07-20T17:20:00;1014.3;;;23.6;48.5
72226;BME280;60130;52.250;5.048;2023-07-20T17:25:00;1014.4;;;22.9;50.7
72226;BME280;60130;52.250;5.048;2023-07-20T17:30:00;1014.4;;;22.6;52.4
72226;BME280;60130;52.250;5.048;2023-07-20T17:35:00;1014.3;;;22.4;52.9
72226;BME280;60130;52.250;5.048;2023-07-20T17:40:06;1014.3;;;22.3;51.7
72226;BME280;60130;52.250;5.048;2023-07-20T17:45:00;1014.3;;;22.4;51.7
72226;BME280;60130;52.250;5.048;2023-07-20T17:50:00;1014.4;;;23.7;49.8
72226;BME280;60130;52.250;5.048;2023-07-20T17:55:00;1014.3;;;24.2;48.1
72226;BME280;60130;52.250;5.048;2023-07-20T18:00:00;1014.3;;;24.0;49.2
72226;BME280;60130;52.250;5.048;2023-07-20T18:05:00;1014.3;;;23.2;50.9
72226;BME280;60130;52.250;5.048;2023-07-20T18:10:00;1014.3;;;22.8;52.9
72226;BME280;60130;52.250;5.048;2023-07-20T18:15:00;1014.2;;;22.3;53.6
72226;BME280;60130;52.250;5.048;2023-07-20T18:20:00;1014.2;;;22.0;54.4
72226;BME280;60130;52.250;5.048;2023-07-20T18:25:00;1014.2;;;22.1;54.3
72226;BME280;60130;52.250;5.048;2023-07-20T18:30:00;1014.2;;;23.0;52.4
72226;BME280;60130;52.250;5.048;2023-07-20T18:35:00;1014.2;;;23.1;53.0
72226;BME280;60130;52.250;5.048;2023-07-20T18:40:01;1014.2;;;23.2;53.2
72226;BME280;60130;52.250;5.048;2023-07-20T18:45:00;1014.2;;;22.6;53.4
72226;BME280;60130;52.250;5.048;2023-07-20T18:50:00;1014.2;;;22.1;54.6
72226;BME280;60130;52.250;5.048;2023-07-20T18:55:00;1014.2;;;21.7;55.6
72226;BME280;60130;52.250;5.048;2023-07-20T19:00:00;1014.2;;;20.9;57.4
72226;BME280;60130;52.250;5.048;2023-07-20T19:05:00;1014.2;;;20.5;58.0
72226;BME280;60130;52.250;5.048;2023-07-20T19:10:02;1014.1;;;20.5;58.8
72226;BME280;60130;52.250;5.048;2023-07-20T19:15:00;1014.2;;;20.7;58.2
72226;BME280;60130;52.250;5.048;2023-07-20T19:20:00;1014.2;;;20.3;58.9
72226;BME280;60130;52.250;5.048;2023-07-20T19:25:00;1014.2;;;20.0;59.9
72226;BME280;60130;52.250;5.048;2023-07-20T19:30:00;1014.2;;;19.9;60.7
72226;BME280;60130;52.250;5.048;2023-07-20T19:35:01;1014.2;;;19.8;59.4
72226;BME280;60130;52.250;5.048;2023-07-20T19:40:00;1014.2;;;19.6;58.3
72226;BME280;60130;52.250;5.048;2023-07-20T19:45:00;1014.2;;;19.5;57.2
72226;BME280;60130;52.250;5.048;2023-07-20T19:50:00;1014.3;;;19.3;57.8
72226;BME280;60130;52.250;5.048;2023-07-20T19:55:00;1014.3;;;19.0;59.2
72226;BME280;60130;52.250;5.048;2023-07-20T20:00:00;1014.4;;;18.9;59.5
72226;BME280;60130;52.250;5.048;2023-07-20T20:05:00;1014.3;;;18.8;59.2
72226;BME280;60130;52.250;5.048;2023-07-20T20:10:00;1014.3;;;18.6;58.6
72226;BME280;60130;52.250;5.048;2023-07-20T20:15:00;1014.4;;;18.6;58.7
72226;BME280;60130;52.250;5.048;2023-07-20T20:20:00;1014.3;;;18.4;59.4
72226;BME280;60130;52.250;5.048;2023-07-20T20:25:00;1014.4;;;18.3;60.0
72226;BME280;60130;52.250;5.048;2023-07-20T20:30:00;1014.4;;;18.1;60.0
72226;BME280;60130;52.250;5.048;2023-07-20T20:35:00;1014.4;;;18.0;61.1
72226;BME280;60130;52.250;5.048;2023-07-20T20:40:00;1014.3;;;17.9;61.7
72226;BME280;60130;52.250;5.048;2023-07-20T20:45:00;1014.3;;;17.8;61.7
72226;BME280;60130;52.250;5.048;2023-07-20T20:50:00;1014.3;;;17.7;61.9
72226;BME280;60130;52.250;5.048;2023-07-20T20:55:00;1014.3;;;17.7;61.7
72226;BME280;60130;52.250;5.048;2023-07-20T21:00:00;1014.4;;;17.6;62.5
72226;BME280;60130;52.250;5.048;2023-07-20T21:05:00;1014.3;;;17.6;63.0
72226;BME280;60130;52.250;5.048;2023-07-20T21:10:00;1014.3;;;17.6;63.7
72226;BME280;60130;52.250;5.048;2023-07-20T21:15:00;1014.3;;;17.6;64.3
72226;BME280;60130;52.250;5.048;2023-07-20T21:20:00;1014.2;;;17.7;64.9
72226;BME280;60130;52.250;5.048;2023-07-20T21:25:00;1014.2;;;17.7;64.8
72226;BME280;60130;52.250;5.048;2023-07-20T21:30:00;1014.2;;;17.7;64.7
72226;BME280;60130;52.250;5.048;2023-07-20T21:35:00;1014.2;;;17.7;65.0
72226;BME280;60130;52.250;5.048;2023-07-20T21:40:00;1014.2;;;17.7;65.3
72226;BME280;60130;52.250;5.048;2023-07-20T21:45:00;1014.2;;;17.7;65.3
72226;BME280;60130;52.250;5.048;2023-07-20T21:50:00;1014.2;;;17.8;65.1
72226;BME280;60130;52.250;5.048;2023-07-20T21:55:00;1014.2;;;17.7;65.4
72226;BME280;60130;52.250;5.048;2023-07-20T22:00:01;1014.2;;;17.7;65.3
72226;BME280;60130;52.250;5.048;2023-07-20T22:05:00;1014.2;;;17.7;65.5
72226;BME280;60130;52.250;5.048;2023-07-20T22:10:00;1014.2;;;17.7;65.5
72226;BME280;60130;52.250;5.048;2023-07-20T22:15:00;1014.2;;;17.6;65.8
72226;BME280;60130;52.250;5.048;2023-07-20T22:20:00;1014.1;;;17.7;65.7
72226;BME280;60130;52.250;5.048;2023-07-20T22:25:00;1014.1;;;17.7;65.9
72226;BME280;60130;52.250;5.048;2023-07-20T22:30:00;1014.1;;;17.6;66.2
72226;BME280;60130;52.250;5.048;2023-07-20T22:35:00;1014.0;;;17.6;66.5
72226;BME280;60130;52.250;5.048;2023-07-20T22:40:00;1014.1;;;17.7;66.4
72226;BME280;60130;52.250;5.048;2023-07-20T22:45:01;1014.0;;;17.6;66.7
72226;BME280;60130;52.250;5.048;2023-07-20T22:50:00;1014.0;;;17.7;66.2
72226;BME280;60130;52.250;5.048;2023-07-20T22:55:00;1013.9;;;17.7;66.6
72226;BME280;60130;52.250;5.048;2023-07-20T23:00:00;1014.0;;;17.7;67.4
72226;BME280;60130;52.250;5.048;2023-07-20T23:05:01;1013.9;;;17.5;68.7
72226;BME280;60130;52.250;5.048;2023-07-20T23:10:00;1013.9;;;17.4;69.1
72226;BME280;60130;52.250;5.048;2023-07-20T23:15:00;1013.9;;;17.4;69.1
72226;BME280;60130;52.250;5.048;2023-07-20T23:20:00;1013.9;;;17.4;69.7
72226;BME280;60130;52.250;5.048;2023-07-20T23:25:00;1013.9;;;17.4;69.6
72226;BME280;60130;52.250;5.048;2023-07-20T23:30:00;1013.8;;;17.4;68.9
72226;BME280;60130;52.250;5.048;2023-07-20T23:35:00;1013.7;;;17.5;68.6
72226;BME280;60130;52.250;5.048;2023-07-20T23:40:00;1013.7;;;17.5;68.6
72226;BME280;60130;52.250;5.048;2023-07-20T23:45:00;1013.7;;;17.5;68.5
72226;BME280;60130;52.250;5.048;2023-07-20T23:50:00;1013.6;;;17.4;68.2
72226;BME280;60130;52.250;5.048;2023-07-20T23:55:00;1013.7;;;17.3;68.4
